< < Back
Terminal Aerodrome Forecast


Current Version              Previous Versions:   1  2  3  4  5  6  7  8  9  

Terminal Aerodrome Forecast

935
FTUS42 KFFC 210500
TAFPDK
TAF
KPDK 210522Z 2106/2206 00000KT P6SM FEW250
     FM211500 19006KT P6SM FEW050 SCT120
     FM211700 24006KT P6SM FEW050 SCT120
     FM220300 26004KT P6SM SCT050 BKN120=



Latest METAR

028
SAUS70 KWBC 211400 RRD
MTRPDK
METAR KPDK 211353Z VRB03KT 10SM CLR 17/05 A3019 RMK AO2 SLP218
T01670050


USA.gov is the U.S. government's official web portal to all federal, state and local government web resources and services.